Time;durP1;ratioP1;P1;durP2;ratioP2;P2;SDS_P1;SDS_P2;PMS_P1;PMS_P2;Temp;Humidity;BMP_temperature;BMP_pressure;BME280_temperature;BME280_humidity;BME280_pressure;Samples;Min_cycle;Max_cycle;Signal;HPM_P1;HPM_P2
2023/09/22 00:01:46;;;;;;;10.88;4.00;;;13.40;99.90;;;;;;5094438;28;20032;-74
2023/09/22 00:04:12;;;;;;;11.52;4.25;;;13.40;99.90;;;;;;5094996;28;20032;-74
2023/09/22 00:06:38;;;;;;;9.07;4.60;;;13.40;99.90;;;;;;5093503;28;20081;-74
2023/09/22 00:09:05;;;;;;;12.55;4.53;;;13.50;99.90;;;;;;5093119;28;20503;-74
2023/09/22 00:11:31;;;;;;;10.70;4.25;;;13.50;99.90;;;;;;5094374;28;20464;-74
2023/09/22 00:13:56;;;;;;;10.88;4.50;;;13.50;99.90;;;;;;5094203;28;20008;-74
2023/09/22 00:16:22;;;;;;;9.70;4.20;;;13.50;99.90;;;;;;5094207;28;20027;-74
2023/09/22 00:18:47;;;;;;;10.23;4.50;;;13.50;99.90;;;;;;5094302;28;20099;-74
2023/09/22 00:21:14;;;;;;;14.52;5.10;;;13.50;99.90;;;;;;5094159;28;20031;-74
2023/09/22 00:23:39;;;;;;;14.95;4.75;;;13.50;99.90;;;;;;5094072;28;20024;-74
2023/09/22 00:26:05;;;;;;;12.88;4.85;;;13.50;99.90;;;;;;5094120;28;20028;-74
2023/09/22 00:28:30;;;;;;;7.35;3.10;;;13.60;99.90;;;;;;5094026;28;20020;-74
2023/09/22 00:30:56;;;;;;;8.60;3.75;;;13.60;99.90;;;;;;5094530;28;20088;-74
2023/09/22 00:33:22;;;;;;;10.68;4.50;;;13.50;99.90;;;;;;5092631;28;20025;-74
2023/09/22 00:35:47;;;;;;;10.10;4.00;;;13.50;99.90;;;;;;5093903;28;20383;-74
2023/09/22 00:38:13;;;;;;;12.60;4.25;;;13.50;99.90;;;;;;5094558;28;20031;-74
2023/09/22 00:40:38;;;;;;;8.98;3.78;;;13.50;99.90;;;;;;5094048;28;20036;-74
2023/09/22 00:43:11;;;;;;;12.00;4.18;;;13.60;99.90;;;;;;5092569;28;20024;-74
2023/09/22 00:45:46;;;;;;;9.98;4.20;;;13.60;99.90;;;;;;5093727;28;20020;-74
2023/09/22 00:48:20;;;;;;;10.75;4.53;;;13.60;99.90;;;;;;5093815;28;20102;-74
2023/09/22 00:50:47;;;;;;;10.70;4.43;;;13.60;99.90;;;;;;5093833;28;20031;-74
2023/09/22 00:53:13;;;;;;;11.70;4.57;;;13.80;99.90;;;;;;5092376;28;20427;-74
2023/09/22 00:55:39;;;;;;;13.30;4.15;;;13.80;99.90;;;;;;5093518;28;20027;-74
2023/09/22 00:58:05;;;;;;;9.65;4.32;;;13.80;99.90;;;;;;5093564;28;20474;-74
2023/09/22 01:00:31;;;;;;;12.98;5.47;;;13.70;99.90;;;;;;5093569;28;20451;-74
2023/09/22 01:02:59;;;;;;;13.75;4.45;;;13.80;99.90;;;;;;5094097;28;20038;-74
2023/09/22 01:05:24;;;;;;;9.68;4.82;;;13.80;99.90;;;;;;5093359;28;20077;-74
2023/09/22 01:07:50;;;;;;;12.35;5.15;;;13.70;99.90;;;;;;5093493;28;20016;-74
2023/09/22 01:10:16;;;;;;;12.38;5.95;;;13.80;99.90;;;;;;5093519;28;20067;-74
2023/09/22 01:12:41;;;;;;;16.90;6.18;;;13.80;99.90;;;;;;5093562;28;20028;-74
2023/09/22 01:15:09;;;;;;;13.38;5.75;;;13.80;99.90;;;;;;5093375;28;20024;-74
2023/09/22 01:17:35;;;;;;;13.75;6.68;;;13.70;99.90;;;;;;5093098;28;20032;-74
2023/09/22 01:20:00;;;;;;;14.50;6.78;;;13.80;99.90;;;;;;5092121;28;20392;-74
2023/09/22 01:22:26;;;;;;;13.55;6.07;;;13.70;99.90;;;;;;5093431;28;20024;-74
2023/09/22 01:24:51;;;;;;;13.40;6.85;;;13.70;99.90;;;;;;5093289;28;20082;-74
2023/09/22 01:27:18;;;;;;;14.35;6.75;;;13.60;99.90;;;;;;5092167;28;20085;-74
2023/09/22 01:29:43;;;;;;;16.77;7.95;;;13.60;99.90;;;;;;5093346;28;20047;-74
2023/09/22 01:32:09;;;;;;;18.08;8.50;;;13.50;99.90;;;;;;5093346;28;20024;-74
2023/09/22 01:34:35;;;;;;;20.40;8.88;;;13.50;99.90;;;;;;5093117;28;20017;-74
2023/09/22 01:37:07;;;;;;;20.88;8.90;;;13.50;99.90;;;;;;5093394;28;20028;-74
2023/09/22 01:39:34;;;;;;;19.95;8.70;;;13.40;99.90;;;;;;5093371;28;20023;-74
2023/09/22 01:42:00;;;;;;;22.85;9.30;;;13.40;99.90;;;;;;5093177;28;20360;-74
2023/09/22 01:44:25;;;;;;;17.05;8.65;;;13.40;99.90;;;;;;5092984;28;20061;-74
2023/09/22 01:46:51;;;;;;;22.40;10.15;;;13.30;99.90;;;;;;5093208;28;20103;-74
2023/09/22 01:49:17;;;;;;;23.05;9.05;;;13.20;99.90;;;;;;5093355;28;20044;-73
2023/09/22 01:51:42;;;;;;;25.92;11.45;;;13.20;99.90;;;;;;5093405;28;20028;-73
2023/09/22 01:54:08;;;;;;;22.00;9.15;;;13.20;99.90;;;;;;5093358;28;20028;-73
2023/09/22 01:56:34;;;;;;;21.10;10.32;;;13.20;99.90;;;;;;5093933;28;20030;-73
2023/09/22 01:59:00;;;;;;;21.65;9.75;;;13.20;99.90;;;;;;5093503;28;20028;-73
2023/09/22 02:01:25;;;;;;;23.73;11.07;;;13.10;99.90;;;;;;5092975;28;20081;-73
2023/09/22 02:03:54;;;;;;;27.02;10.77;;;13.10;99.90;;;;;;5092826;28;20119;-73
2023/09/22 02:06:19;;;;;;;23.70;9.25;;;13.00;99.90;;;;;;5092875;28;20038;-73
2023/09/22 02:08:45;;;;;;;25.15;10.30;;;13.00;99.90;;;;;;5093005;28;20044;-73
2023/09/22 02:11:11;;;;;;;22.35;9.93;;;13.00;99.90;;;;;;5093412;28;20069;-73
2023/09/22 02:13:37;;;;;;;21.02;8.60;;;13.00;99.90;;;;;;5093367;28;20017;-73
2023/09/22 02:16:03;;;;;;;20.70;9.02;;;13.20;99.90;;;;;;5091437;28;20020;-73
2023/09/22 02:18:29;;;;;;;22.25;9.25;;;13.00;99.90;;;;;;5093084;28;20020;-73
2023/09/22 02:20:54;;;;;;;24.40;9.20;;;12.90;99.90;;;;;;5093058;28;20020;-73
2023/09/22 02:23:20;;;;;;;21.33;8.57;;;12.90;99.90;;;;;;5092014;28;20024;-73
2023/09/22 02:25:46;;;;;;;22.42;8.95;;;12.90;99.90;;;;;;5092674;28;20097;-73
2023/09/22 02:28:12;;;;;;;21.25;8.38;;;12.90;99.90;;;;;;5093094;28;20099;-73
2023/09/22 02:30:37;;;;;;;22.95;9.00;;;12.90;99.90;;;;;;5096666;28;20471;-73
2023/09/22 02:33:04;;;;;;;22.65;9.50;;;12.90;99.90;;;;;;5096317;28;20105;-73
2023/09/22 02:35:29;;;;;;;20.85;8.60;;;12.80;99.90;;;;;;5096427;28;20020;-73
2023/09/22 02:37:55;;;;;;;19.52;8.23;;;12.90;99.90;;;;;;5096788;28;20032;-73
2023/09/22 02:40:20;;;;;;;20.25;8.52;;;12.90;99.90;;;;;;5094784;28;20081;-73
2023/09/22 02:42:46;;;;;;;19.90;8.00;;;12.90;99.90;;;;;;5095963;28;20028;-73
2023/09/22 02:45:12;;;;;;;22.70;9.02;;;12.90;99.90;;;;;;5095922;28;20016;-73
2023/09/22 02:47:40;;;;;;;24.85;9.65;;;12.80;99.90;;;;;;5094693;28;20031;-73
2023/09/22 02:50:10;;;;;;;21.80;9.30;;;12.80;99.90;;;;;;5096510;28;20459;-73
2023/09/22 02:52:38;;;;;;;27.13;9.63;;;12.80;99.90;;;;;;5095842;28;20027;-73
2023/09/22 02:55:05;;;;;;;20.20;8.70;;;12.80;99.90;;;;;;5095864;28;20020;-73
2023/09/22 02:57:30;;;;;;;19.33;8.25;;;12.80;99.90;;;;;;5095826;28;20484;-73
2023/09/22 02:59:56;;;;;;;17.73;7.70;;;12.80;99.90;;;;;;5095813;28;20107;-73
2023/09/22 03:02:22;;;;;;;22.13;9.02;;;12.80;99.90;;;;;;5095930;28;20028;-73
2023/09/22 03:04:47;;;;;;;20.83;8.25;;;12.80;99.90;;;;;;5095533;28;20390;-73
2023/09/22 03:07:13;;;;;;;26.15;8.88;;;12.80;99.90;;;;;;5096205;28;20026;-73
2023/09/22 03:09:39;;;;;;;21.58;8.65;;;12.80;99.90;;;;;;5095723;28;20020;-73
2023/09/22 03:12:05;;;;;;;22.45;8.77;;;12.80;99.90;;;;;;5096273;28;20455;-73
2023/09/22 03:14:30;;;;;;;26.10;9.05;;;12.80;99.90;;;;;;5095652;28;20140;-73
2023/09/22 03:16:57;;;;;;;19.70;8.30;;;12.80;99.90;;;;;;5095751;28;20530;-73
2023/09/22 03:19:23;;;;;;;20.77;9.57;;;12.80;99.90;;;;;;5094276;28;20024;-73
2023/09/22 03:21:49;;;;;;;20.95;8.50;;;12.80;99.90;;;;;;5095361;28;20080;-73
2023/09/22 03:24:14;;;;;;;17.35;8.13;;;12.80;99.90;;;;;;5095685;28;20020;-73
2023/09/22 03:26:40;;;;;;;19.27;7.35;;;12.70;99.90;;;;;;5094103;28;20017;-73
2023/09/22 03:29:05;;;;;;;19.67;8.23;;;12.80;99.90;;;;;;5093865;28;20024;-73
2023/09/22 03:31:31;;;;;;;22.95;7.45;;;12.80;99.90;;;;;;5095357;28;20084;-73
2023/09/22 03:33:56;;;;;;;18.52;7.05;;;12.70;99.90;;;;;;5095571;28;20024;-73
2023/09/22 03:36:22;;;;;;;17.95;6.70;;;12.70;99.90;;;;;;5095266;28;20023;-73
2023/09/22 03:38:48;;;;;;;16.40;6.82;;;12.70;99.90;;;;;;5095633;28;20020;-73
2023/09/22 03:41:16;;;;;;;16.73;6.53;;;12.70;99.90;;;;;;5095379;28;20027;-73
2023/09/22 03:43:43;;;;;;;17.17;6.70;;;12.70;99.90;;;;;;5093719;28;20024;-73
2023/09/22 03:46:10;;;;;;;14.90;7.35;;;12.70;99.90;;;;;;5094840;28;20130;-73
2023/09/22 03:48:38;;;;;;;15.75;6.93;;;12.70;99.90;;;;;;5093835;28;20031;-73
2023/09/22 03:51:05;;;;;;;18.60;6.40;;;12.70;99.90;;;;;;5093560;28;20375;-73
2023/09/22 03:53:31;;;;;;;16.75;6.45;;;12.70;99.90;;;;;;5094705;28;20081;-73
2023/09/22 03:55:57;;;;;;;17.20;6.57;;;12.60;99.90;;;;;;5095053;28;20072;-73
2023/09/22 03:58:23;;;;;;;16.92;6.20;;;12.70;99.90;;;;;;5094547;28;20024;-73
2023/09/22 04:00:49;;;;;;;15.98;5.88;;;12.60;99.90;;;;;;5094725;28;20520;-73
2023/09/22 04:03:15;;;;;;;28.23;6.18;;;12.70;99.90;;;;;;5093948;28;20028;-73
2023/09/22 04:05:40;;;;;;;22.48;6.03;;;12.70;99.90;;;;;;5095174;28;20024;-74
2023/09/22 04:08:06;;;;;;;15.38;5.57;;;12.70;99.90;;;;;;5093293;28;20027;-74
2023/09/22 04:10:35;;;;;;;14.95;5.53;;;12.70;99.90;;;;;;5095007;28;20024;-73
2023/09/22 04:13:00;;;;;;;16.67;6.90;;;12.70;99.90;;;;;;5095169;28;20024;-73
2023/09/22 04:15:26;;;;;;;16.77;5.90;;;12.70;99.90;;;;;;5094420;28;20478;-73
2023/09/22 04:17:52;;;;;;;17.42;6.00;;;12.80;99.90;;;;;;5094300;28;20016;-73
2023/09/22 04:20:28;;;;;;;13.68;5.30;;;12.80;99.90;;;;;;5094293;28;20081;-73
2023/09/22 04:22:55;;;;;;;14.13;5.60;;;12.80;99.90;;;;;;5092983;28;20027;-73
2023/09/22 04:25:29;;;;;;;15.93;6.30;;;12.80;99.90;;;;;;5093988;28;20043;-73
2023/09/22 04:27:57;;;;;;;12.35;4.72;;;12.80;99.90;;;;;;5092969;28;20020;-74
2023/09/22 04:30:24;;;;;;;13.73;5.35;;;12.80;99.90;;;;;;5092855;28;20387;-73
2023/09/22 04:32:51;;;;;;;12.95;4.57;;;12.80;99.90;;;;;;5093083;28;20012;-73
2023/09/22 04:35:17;;;;;;;19.25;5.85;;;12.80;99.90;;;;;;5092711;28;20028;-73
2023/09/22 04:37:43;;;;;;;15.48;4.50;;;12.80;99.90;;;;;;5093829;28;20436;-73
2023/09/22 04:40:23;;;;;;;14.95;4.90;;;12.80;99.90;;;;;;5092653;28;20123;-73
2023/09/22 04:42:49;;;;;;;12.18;4.45;;;12.80;99.90;;;;;;5092546;28;20479;-73
2023/09/22 04:45:15;;;;;;;10.18;4.00;;;12.80;99.90;;;;;;5092845;28;20463;-73
2023/09/22 04:47:40;;;;;;;11.23;3.83;;;12.90;99.90;;;;;;5093653;28;20158;-73
2023/09/22 04:50:06;;;;;;;10.75;3.08;;;12.90;99.90;;;;;;5092483;28;20054;-73
2023/09/22 04:52:32;;;;;;;9.93;2.65;;;12.90;99.90;;;;;;5093732;28;20066;-73
2023/09/22 04:54:57;;;;;;;10.98;4.45;;;13.00;99.90;;;;;;5093635;28;20434;-73
2023/09/22 04:57:24;;;;;;;10.38;3.70;;;13.00;99.90;;;;;;5093576;28;20039;-73
2023/09/22 04:59:52;;;;;;;12.70;3.70;;;13.00;99.90;;;;;;5092315;28;20016;-73
2023/09/22 05:02:18;;;;;;;16.52;3.40;;;13.00;99.90;;;;;;5092173;28;20081;-73
2023/09/22 05:04:43;;;;;;;8.05;3.30;;;13.10;99.90;;;;;;5093085;28;20032;-73
2023/09/22 05:07:09;;;;;;;10.30;3.50;;;13.00;99.90;;;;;;5093355;28;20391;-72
2023/09/22 05:09:35;;;;;;;9.48;3.30;;;13.00;99.90;;;;;;5093375;28;20475;-72
2023/09/22 05:12:00;;;;;;;7.18;2.83;;;13.00;99.90;;;;;;5093324;28;20020;-72
2023/09/22 05:14:26;;;;;;;10.05;3.08;;;13.00;99.90;;;;;;5093306;28;20024;-74
2023/09/22 05:16:52;;;;;;;8.55;3.15;;;12.90;99.90;;;;;;5092099;28;20081;-75
2023/09/22 05:19:18;;;;;;;10.10;3.10;;;12.90;99.90;;;;;;5094243;28;20422;-75
2023/09/22 05:21:44;;;;;;;10.38;3.45;;;12.80;99.90;;;;;;5093544;28;20494;-74
2023/09/22 05:24:10;;;;;;;8.00;2.67;;;12.80;99.90;;;;;;5093189;28;20020;-74
2023/09/22 05:26:35;;;;;;;13.23;3.33;;;12.70;99.90;;;;;;5093147;28;20023;-74
2023/09/22 05:29:01;;;;;;;9.55;2.58;;;12.70;99.90;;;;;;5093387;28;20021;-74
2023/09/22 05:31:26;;;;;;;13.80;3.33;;;12.70;99.90;;;;;;5093232;28;20020;-74
2023/09/22 05:33:52;;;;;;;9.00;3.33;;;12.70;99.90;;;;;;5093089;28;20020;-74
2023/09/22 05:36:18;;;;;;;7.60;3.03;;;12.70;99.90;;;;;;5093195;28;20085;-75
2023/09/22 05:38:43;;;;;;;11.40;3.13;;;12.70;99.90;;;;;;5093232;28;20024;-72
2023/09/22 05:41:09;;;;;;;10.95;3.35;;;12.70;99.90;;;;;;5091904;28;20020;-73
2023/09/22 05:43:35;;;;;;;9.90;3.53;;;12.80;99.90;;;;;;5091942;28;20174;-74
2023/09/22 05:46:00;;;;;;;27.15;3.95;;;12.80;99.90;;;;;;5093010;28;20515;-73
2023/09/22 05:48:26;;;;;;;12.45;3.60;;;12.80;99.90;;;;;;5093201;28;20384;-74
2023/09/22 05:50:59;;;;;;;13.02;3.38;;;12.80;99.90;;;;;;5093639;28;20027;-74
2023/09/22 05:53:26;;;;;;;8.82;2.92;;;13.10;99.90;;;;;;5093048;28;20034;-74
2023/09/22 05:56:07;;;;;;;9.45;4.32;;;12.90;99.90;;;;;;5093055;28;20024;-74
2023/09/22 05:58:37;;;;;;;8.73;3.75;;;13.00;99.90;;;;;;5092894;28;20078;-72
2023/09/22 06:01:10;;;;;;;16.20;4.07;;;13.00;99.90;;;;;;5092846;28;20024;-71
2023/09/22 06:03:40;;;;;;;10.10;4.40;;;13.00;99.90;;;;;;5093604;28;20126;-71
2023/09/22 06:06:14;;;;;;;10.10;3.50;;;13.00;99.90;;;;;;5097693;28;20028;-72
2023/09/22 06:08:46;;;;;;;7.60;3.28;;;13.00;99.90;;;;;;5096759;28;20540;-72
2023/09/22 06:11:13;;;;;;;12.20;3.38;;;13.00;99.90;;;;;;5096757;28;20017;-72
2023/09/22 06:13:40;;;;;;;13.35;3.83;;;13.10;99.90;;;;;;5096754;28;20364;-72
2023/09/22 06:16:06;;;;;;;8.57;2.88;;;13.00;99.90;;;;;;5096469;28;20020;-72
2023/09/22 06:18:32;;;;;;;8.05;2.60;;;13.10;99.90;;;;;;5095231;28;20024;-73
2023/09/22 06:20:59;;;;;;;10.75;3.00;;;13.10;99.90;;;;;;5096430;28;20031;-73
2023/09/22 06:23:26;;;;;;;3.92;1.77;;;13.10;99.90;;;;;;5096749;28;20066;-72
2023/09/22 06:25:54;;;;;;;9.80;2.40;;;13.10;99.90;;;;;;5094825;28;20031;-72
2023/09/22 06:28:20;;;;;;;4.45;1.90;;;13.10;99.90;;;;;;5095163;28;20027;-72
2023/09/22 06:30:50;;;;;;;6.32;1.75;;;13.10;99.90;;;;;;5096503;28;20470;-72
2023/09/22 06:33:18;;;;;;;10.05;2.25;;;13.20;99.90;;;;;;5096440;28;20016;-73
2023/09/22 06:35:59;;;;;;;7.50;1.80;;;13.20;99.90;;;;;;5096372;28;20024;-72
2023/09/22 06:38:25;;;;;;;8.25;1.63;;;13.30;99.90;;;;;;5094914;28;20078;-73
2023/09/22 06:40:55;;;;;;;3.20;1.60;;;13.30;99.90;;;;;;5096197;28;20035;-73
2023/09/22 06:43:24;;;;;;;5.10;1.00;;;13.30;99.90;;;;;;5096211;28;20053;-72
2023/09/22 06:45:53;;;;;;;3.30;1.45;;;13.30;99.90;;;;;;5095825;28;20383;-72
2023/09/22 06:48:25;;;;;;;4.65;1.13;;;13.30;99.90;;;;;;5095931;28;20013;-76
2023/09/22 06:50:52;;;;;;;1.58;0.70;;;13.40;99.90;;;;;;5094930;28;20024;-76
2023/09/22 06:53:18;;;;;;;4.72;0.90;;;13.50;99.90;;;;;;5095963;28;20024;-76
2023/09/22 06:55:44;;;;;;;2.83;1.10;;;13.60;99.90;;;;;;5095905;28;20024;-76
2023/09/22 06:58:10;;;;;;;7.28;1.05;;;13.60;99.90;;;;;;5095789;28;20392;-76
2023/09/22 07:00:35;;;;;;;4.93;0.70;;;13.60;99.90;;;;;;5096052;28;20032;-77
2023/09/22 07:03:01;;;;;;;4.55;0.63;;;13.60;99.90;;;;;;5094639;28;20020;-76
2023/09/22 07:05:27;;;;;;;2.95;0.70;;;13.70;99.90;;;;;;5093862;28;20158;-76
2023/09/22 07:07:52;;;;;;;4.53;0.52;;;13.70;99.90;;;;;;5097019;28;20016;-75
2023/09/22 07:10:18;;;;;;;3.45;0.32;;;13.90;99.90;;;;;;5093525;28;20463;-75
2023/09/22 07:12:44;;;;;;;3.85;0.35;;;13.90;99.90;;;;;;5095313;28;20086;-76
2023/09/22 07:15:10;;;;;;;3.90;0.38;;;13.90;99.90;;;;;;5093387;28;20482;-76
2023/09/22 07:17:36;;;;;;;1.38;0.65;;;14.00;99.90;;;;;;5095696;28;20035;-75
2023/09/22 07:20:08;;;;;;;0.77;0.40;;;14.00;99.90;;;;;;5095453;28;20056;-75
2023/09/22 07:22:34;;;;;;;1.15;0.30;;;14.10;99.90;;;;;;5095288;28;20073;-75
2023/09/22 07:25:00;;;;;;;2.28;0.35;;;14.00;99.90;;;;;;5094935;28;20028;-75
2023/09/22 07:27:26;;;;;;;4.20;0.30;;;14.30;99.90;;;;;;5095158;28;20012;-75
2023/09/22 07:29:52;;;;;;;1.10;0.20;;;14.00;99.90;;;;;;5095258;28;20020;-77
2023/09/22 07:32:18;;;;;;;0.65;0.30;;;14.00;99.90;;;;;;5093978;28;20051;-77
2023/09/22 07:34:45;;;;;;;1.45;0.25;;;14.10;99.90;;;;;;5094644;28;20020;-76
2023/09/22 07:37:17;;;;;;;2.38;0.10;;;14.10;99.90;;;;;;5094964;28;20116;-76
2023/09/22 07:39:43;;;;;;;0.30;0.10;;;14.20;99.90;;;;;;5093508;28;20034;-76
2023/09/22 07:42:09;;;;;;;1.00;0.10;;;14.40;99.90;;;;;;5094756;28;20098;-75
2023/09/22 07:44:36;;;;;;;1.23;0.20;;;14.50;99.90;;;;;;5094664;28;20146;-75
2023/09/22 07:47:03;;;;;;;2.92;0.35;;;14.50;99.90;;;;;;5094711;28;20031;-75
2023/09/22 07:49:29;;;;;;;0.88;0.10;;;14.60;99.90;;;;;;5094915;28;20020;-76
2023/09/22 07:51:55;;;;;;;0.43;0.20;;;14.50;99.90;;;;;;5095004;28;20024;-76
2023/09/22 07:54:22;;;;;;;0.95;0.17;;;14.40;99.90;;;;;;5094519;28;20020;-76
2023/09/22 07:56:47;;;;;;;0.50;0.20;;;14.30;99.90;;;;;;5094669;28;20024;-75
2023/09/22 07:59:14;;;;;;;0.70;0.10;;;14.30;99.90;;;;;;5094384;28;20028;-75
2023/09/22 08:01:43;;;;;;;3.15;0.40;;;14.30;99.90;;;;;;5094616;28;20416;-76
2023/09/22 08:04:13;;;;;;;0.13;0.05;;;14.30;99.90;;;;;;5094352;28;20031;-76
2023/09/22 08:06:39;;;;;;;1.40;0.20;;;14.40;99.90;;;;;;5094571;28;20458;-76
2023/09/22 08:09:05;;;;;;;0.52;0.10;;;14.50;99.90;;;;;;5094292;28;20025;-75
2023/09/22 08:11:32;;;;;;;3.45;0.10;;;14.60;99.90;;;;;;5094280;28;20456;-76
2023/09/22 08:13:58;;;;;;;1.98;0.10;;;14.60;99.90;;;;;;5094207;28;20502;-76
2023/09/22 08:16:25;;;;;;;0.30;0.00;;;14.60;99.90;;;;;;5094262;28;20170;-76
2023/09/22 08:18:51;;;;;;;6.03;0.00;;;14.60;99.90;;;;;;5094269;28;20081;-76
2023/09/22 08:21:16;;;;;;;0.03;0.00;;;14.50;99.90;;;;;;5094048;28;20145;-76
2023/09/22 08:23:42;;;;;;;0.90;0.00;;;14.30;99.90;;;;;;5094376;28;20095;-76
2023/09/22 08:26:08;;;;;;;0.52;0.00;;;14.30;99.90;;;;;;5093628;28;20028;-76
2023/09/22 08:28:34;;;;;;;2.58;0.00;;;14.30;99.90;;;;;;5092691;28;20055;-76
2023/09/22 08:31:00;;;;;;;0.65;0.00;;;14.30;99.90;;;;;;5094190;28;20016;-76
2023/09/22 08:33:25;;;;;;;0.28;0.00;;;14.40;99.90;;;;;;5094058;28;20031;-76
2023/09/22 08:35:51;;;;;;;0.47;0.17;;;14.60;99.90;;;;;;5093805;28;20032;-77
2023/09/22 08:38:18;;;;;;;0.68;0.00;;;14.70;99.90;;;;;;5092521;28;20483;-77
2023/09/22 08:40:47;;;;;;;0.20;0.00;;;15.10;99.90;;;;;;5092633;28;20070;-76
2023/09/22 08:43:13;;;;;;;2.67;0.05;;;14.90;99.90;;;;;;5093593;28;20039;-76
2023/09/22 08:45:39;;;;;;;0.10;0.00;;;15.00;99.90;;;;;;5093754;28;20028;-76
2023/09/22 08:48:05;;;;;;;0.82;0.30;;;15.10;99.90;;;;;;5093729;28;20031;-76
2023/09/22 08:50:31;;;;;;;0.30;0.08;;;15.10;99.90;;;;;;5093735;28;20394;-75
2023/09/22 08:52:57;;;;;;;0.38;0.05;;;15.20;99.90;;;;;;5093649;28;20058;-75
2023/09/22 08:55:23;;;;;;;0.10;0.03;;;15.40;99.90;;;;;;5093373;28;20028;-75
2023/09/22 08:57:49;;;;;;;1.25;0.20;;;15.40;99.90;;;;;;5093961;28;20024;-76
2023/09/22 09:00:20;;;;;;;0.40;0.13;;;15.40;99.90;;;;;;5093543;28;20028;-76
2023/09/22 09:02:47;;;;;;;1.40;0.60;;;15.40;99.90;;;;;;5092157;28;20073;-76
2023/09/22 09:05:28;;;;;;;0.63;0.17;;;15.40;99.90;;;;;;5093028;28;20372;-75
2023/09/22 09:07:55;;;;;;;1.85;0.50;;;15.40;99.90;;;;;;5092104;28;20435;-76
2023/09/22 09:10:29;;;;;;;0.15;0.00;;;15.30;99.90;;;;;;5093528;28;20062;-77
2023/09/22 09:12:56;;;;;;;3.78;0.20;;;15.30;99.90;;;;;;5093285;28;20035;-76
2023/09/22 09:15:26;;;;;;;3.40;0.17;;;15.50;99.90;;;;;;5091794;28;20398;-76
2023/09/22 09:18:05;;;;;;;0.85;0.10;;;16.60;99.90;;;;;;5093180;28;20039;-76
2023/09/22 09:20:36;;;;;;;1.65;0.20;;;15.50;99.90;;;;;;5093379;28;20020;-77
2023/09/22 09:23:31;;;;;;;0.20;0.00;;;15.50;99.90;;;;;;5093209;28;20055;-77
2023/09/22 09:25:57;;;;;;;3.45;0.10;;;15.60;99.90;;;;;;5080040;28;20036;-76
2023/09/22 09:28:23;;;;;;;2.67;0.13;;;15.60;99.90;;;;;;5093185;28;20020;-76
2023/09/22 09:30:59;;;;;;;2.78;0.20;;;15.70;99.90;;;;;;5091934;28;20556;-76
2023/09/22 09:33:32;;;;;;;3.95;0.15;;;15.80;99.90;;;;;;5093050;28;20020;-76
2023/09/22 09:35:58;;;;;;;0.50;0.10;;;15.90;99.90;;;;;;5093054;28;20149;-76
2023/09/22 09:38:40;;;;;;;6.85;0.75;;;16.00;99.90;;;;;;5095399;28;20059;-76
2023/09/22 09:41:06;;;;;;;2.42;0.13;;;16.00;99.90;;;;;;5097100;28;20483;-76
2023/09/22 09:43:33;;;;;;;0.25;0.00;;;15.90;99.90;;;;;;5097306;28;20039;-76
2023/09/22 09:45:59;;;;;;;1.42;0.08;;;15.90;99.90;;;;;;5097087;28;20024;-76
2023/09/22 09:48:26;;;;;;;0.35;0.20;;;15.90;99.90;;;;;;5095843;28;20132;-76
2023/09/22 09:50:59;;;;;;;0.15;0.00;;;15.90;99.90;;;;;;5095884;28;20050;-76
2023/09/22 09:53:42;;;;;;;1.30;0.17;;;16.00;99.90;;;;;;5097016;28;20050;-76
2023/09/22 09:56:11;;;;;;;1.85;0.10;;;16.10;99.90;;;;;;5095630;28;20394;-76
2023/09/22 09:58:39;;;;;;;1.55;0.10;;;16.30;99.90;;;;;;5096021;28;20016;-76
2023/09/22 10:01:05;;;;;;;0.75;0.47;;;16.50;99.90;;;;;;5096751;28;20023;-76
2023/09/22 10:03:33;;;;;;;1.17;0.10;;;16.50;99.90;;;;;;5096683;28;20526;-76
2023/09/22 10:06:02;;;;;;;0.20;0.10;;;16.50;99.90;;;;;;5097111;28;20020;-76
2023/09/22 10:08:28;;;;;;;;;;;16.50;99.90;;;;;;5097165;28;20024;-76
2023/09/22 10:10:58;;;;;;;1.55;0.70;;;16.40;99.90;;;;;;5096503;28;19911;-76
2023/09/22 10:13:24;;;;;;;3.22;0.00;;;16.50;99.90;;;;;;5096377;28;20077;-76
2023/09/22 10:16:00;;;;;;;0.45;0.00;;;16.70;99.90;;;;;;5096472;28;20070;-76
2023/09/22 10:18:47;;;;;;;0.57;0.10;;;16.80;99.90;;;;;;5095769;28;20020;-76
2023/09/22 10:21:33;;;;;;;0.32;0.03;;;17.10;99.90;;;;;;5096620;28;20054;-77
2023/09/22 10:24:22;;;;;;;0.15;0.10;;;17.20;99.90;;;;;;5096701;28;20020;-76
2023/09/22 10:26:53;;;;;;;0.65;0.10;;;17.20;99.90;;;;;;5096446;28;20026;-76
2023/09/22 10:29:37;;;;;;;1.50;0.20;;;17.20;99.90;;;;;;5096330;28;20043;-76
2023/09/22 10:32:15;;;;;;;0.15;0.00;;;17.10;99.90;;;;;;5096479;28;20438;-76
2023/09/22 10:34:58;;;;;;;2.10;0.20;;;17.20;99.90;;;;;;5096395;28;20028;-76
2023/09/22 10:37:28;;;;;;;1.48;0.10;;;17.40;99.90;;;;;;5094984;28;20059;-76
2023/09/22 10:40:08;;;;;;;1.65;0.00;;;17.70;99.90;;;;;;5094953;28;20058;-76
2023/09/22 10:42:39;;;;;;;1.83;0.00;;;17.80;99.90;;;;;;5096012;28;20074;-76
2023/09/22 10:45:06;;;;;;;1.35;0.40;;;17.90;99.90;;;;;;5094536;28;20024;-76
2023/09/22 10:47:42;;;;;;;1.05;0.08;;;18.10;99.90;;;;;;5095920;28;20382;-76
2023/09/22 10:50:14;;;;;;;0.57;0.08;;;18.20;99.90;;;;;;5095368;28;20027;-76
2023/09/22 10:52:39;;;;;;;0.85;0.00;;;18.20;99.90;;;;;;5096037;28;20020;-76
2023/09/22 10:55:06;;;;;;;1.00;0.08;;;18.20;99.90;;;;;;5095715;28;20081;-76
2023/09/22 10:57:33;;;;;;;3.45;0.00;;;18.10;99.90;;;;;;5095626;28;20032;-76
2023/09/22 11:00:00;;;;;;;0.00;0.00;;;17.90;99.90;;;;;;5094472;28;20059;-76
2023/09/22 11:02:26;;;;;;;0.30;0.00;;;17.80;99.90;;;;;;5095610;28;20442;-76
2023/09/22 11:04:53;;;;;;;1.75;0.03;;;17.80;99.90;;;;;;5095281;28;20066;-76
2023/09/22 11:07:31;;;;;;;0.95;0.10;;;17.80;99.90;;;;;;5094155;28;20479;-76
2023/09/22 11:09:57;;;;;;;1.40;0.52;;;17.80;99.90;;;;;;5094090;28;20017;-76
2023/09/22 11:12:24;;;;;;;1.65;0.00;;;17.90;99.90;;;;;;5093571;28;20032;-76
2023/09/22 11:14:50;;;;;;;0.90;0.00;;;17.90;99.90;;;;;;5094077;28;20046;-76
2023/09/22 11:17:15;;;;;;;1.55;0.00;;;18.00;99.90;;;;;;5095201;28;20035;-76
2023/09/22 11:19:54;;;;;;;1.80;0.00;;;17.90;99.90;;;;;;5095231;28;20494;-76
2023/09/22 11:22:20;;;;;;;;;;;17.80;99.90;;;;;;5095876;28;20502;-76
2023/09/22 11:24:46;;;;;;;0.10;0.10;;;17.80;99.90;;;;;;5094953;28;19904;-76
2023/09/22 11:27:12;;;;;;;1.95;0.00;;;18.10;99.90;;;;;;5095180;28;20099;-76
2023/09/22 11:29:39;;;;;;;0.85;0.00;;;18.20;99.90;;;;;;5094941;28;20101;-76
2023/09/22 11:32:08;;;;;;;0.75;0.00;;;18.40;99.90;;;;;;5093936;28;20023;-77
2023/09/22 11:34:45;;;;;;;1.08;0.00;;;18.40;99.90;;;;;;5095066;28;20017;-78
2023/09/22 11:37:10;;;;;;;0.10;0.00;;;19.00;99.90;;;;;;5095396;28;20051;-76
2023/09/22 11:39:36;;;;;;;2.72;0.43;;;19.00;99.90;;;;;;5095048;28;20484;-76
2023/09/22 11:42:03;;;;;;;1.13;0.00;;;19.10;99.90;;;;;;5094990;28;20060;-76
2023/09/22 11:44:29;;;;;;;0.20;0.00;;;19.10;99.90;;;;;;5094449;28;20046;-76
2023/09/22 11:46:54;;;;;;;1.13;0.00;;;19.20;99.90;;;;;;5094621;28;20103;-76
2023/09/22 11:49:20;;;;;;;1.65;0.00;;;19.40;99.90;;;;;;5095083;28;20536;-76
2023/09/22 11:51:55;;;;;;;1.63;0.00;;;19.30;99.90;;;;;;5094653;28;20016;-76
2023/09/22 11:54:24;;;;;;;0.50;0.00;;;19.20;99.90;;;;;;5094724;28;20024;-76
2023/09/22 11:56:54;;;;;;;0.30;0.00;;;19.40;99.90;;;;;;5093486;28;20020;-76
2023/09/22 11:59:21;;;;;;;0.93;0.10;;;19.50;99.90;;;;;;5093294;28;20031;-76
2023/09/22 12:01:50;;;;;;;0.75;0.00;;;19.60;99.90;;;;;;5093250;28;20024;-76
2023/09/22 12:04:18;;;;;;;1.73;0.10;;;19.50;99.90;;;;;;5094537;28;20034;-76
2023/09/22 12:06:44;;;;;;;0.65;0.00;;;19.30;99.90;;;;;;5094446;28;20016;-76
2023/09/22 12:09:11;;;;;;;0.17;0.00;;;19.10;99.90;;;;;;5094418;28;20016;-76
2023/09/22 12:11:38;;;;;;;0.98;0.00;;;19.30;99.90;;;;;;5094759;28;20024;-76
2023/09/22 12:14:04;;;;;;;0.35;0.00;;;18.50;99.90;;;;;;5094376;28;20012;-76
2023/09/22 12:16:30;;;;;;;0.55;0.00;;;18.50;99.90;;;;;;5094512;28;20145;-76
2023/09/22 12:18:56;;;;;;;1.35;0.00;;;18.50;99.90;;;;;;5094200;28;20031;-76
2023/09/22 12:21:22;;;;;;;1.38;0.00;;;18.50;99.90;;;;;;5093002;28;20028;-76
2023/09/22 12:23:48;;;;;;;0.32;0.10;;;18.40;99.90;;;;;;5094205;28;20026;-76
2023/09/22 12:26:13;;;;;;;0.43;0.22;;;18.50;99.90;;;;;;5093959;28;20432;-76
2023/09/22 12:28:40;;;;;;;0.75;0.00;;;18.60;99.90;;;;;;5092428;28;20052;-76
2023/09/22 12:31:06;;;;;;;0.10;0.00;;;18.60;99.90;;;;;;5093999;28;20379;-76
2023/09/22 12:33:32;;;;;;;2.20;0.03;;;18.60;99.90;;;;;;5092641;28;20017;-76
2023/09/22 12:35:58;;;;;;;0.85;0.00;;;18.60;99.90;;;;;;5093892;28;20031;-76
2023/09/22 12:38:24;;;;;;;0.65;0.00;;;18.80;99.90;;;;;;5093761;28;20395;-76
2023/09/22 12:40:51;;;;;;;0.40;0.10;;;18.90;99.90;;;;;;5092541;28;20021;-76
2023/09/22 12:43:17;;;;;;;1.10;0.00;;;18.90;99.90;;;;;;5092606;28;20110;-76
2023/09/22 12:45:46;;;;;;;1.55;0.00;;;18.80;99.90;;;;;;5093774;28;20031;-76